createdAt,value
2019-01-24T00:00:54.579Z,-1.80
2019-01-24T00:03:28.162Z,-1.80
2019-01-24T00:06:01.761Z,-1.80
2019-01-24T00:08:36.115Z,-1.90
2019-01-24T00:11:09.680Z,-1.90
2019-01-24T00:13:43.303Z,-1.90
2019-01-24T00:16:17.007Z,-1.90
2019-01-24T00:18:50.626Z,-1.90
2019-01-24T00:21:24.139Z,-1.90
2019-01-24T00:23:57.783Z,-1.90
2019-01-24T00:26:32.221Z,-2.00
2019-01-24T00:29:05.839Z,-2.00
2019-01-24T00:31:39.398Z,-1.90
2019-01-24T00:34:13.771Z,-2.00
2019-01-24T00:36:47.353Z,-2.00
2019-01-24T00:39:20.956Z,-1.90
2019-01-24T00:41:54.527Z,-2.00
2019-01-24T00:44:28.155Z,-2.00
2019-01-24T00:47:01.671Z,-2.00
2019-01-24T00:49:35.330Z,-2.00
2019-01-24T00:52:09.089Z,-2.00
2019-01-24T00:54:42.752Z,-2.00
2019-01-24T00:57:16.345Z,-2.10
2019-01-24T00:59:49.892Z,-2.00
2019-01-24T01:02:23.461Z,-2.00
2019-01-24T01:04:57.044Z,-2.00
2019-01-24T01:07:30.639Z,-2.00
2019-01-24T01:10:04.147Z,-2.00
2019-01-24T01:12:37.740Z,-2.00
2019-01-24T01:15:13.143Z,-2.00
2019-01-24T01:17:46.693Z,-2.10
2019-01-24T01:20:20.315Z,-2.00
2019-01-24T01:22:53.901Z,-2.10
2019-01-24T01:25:28.266Z,-2.10
2019-01-24T01:28:01.903Z,-2.10
2019-01-24T01:30:36.322Z,-2.00
2019-01-24T01:33:10.798Z,-2.00
2019-01-24T01:35:44.715Z,-2.00
2019-01-24T01:38:18.383Z,-2.00
2019-01-24T01:40:52.115Z,-1.90
2019-01-24T01:43:25.716Z,-1.90
2019-01-24T01:45:59.273Z,-2.00
2019-01-24T01:48:32.925Z,-2.10
2019-01-24T01:51:06.594Z,-2.20
2019-01-24T01:53:40.412Z,-2.20
2019-01-24T01:56:13.951Z,-2.20
2019-01-24T01:58:47.767Z,-2.10
2019-01-24T02:01:21.564Z,-2.10
2019-01-24T02:03:55.127Z,-2.00
2019-01-24T02:06:28.710Z,-2.10
2019-01-24T02:09:02.573Z,-2.20
2019-01-24T02:11:37.224Z,-2.10
2019-01-24T02:14:10.774Z,-2.10
2019-01-24T02:16:44.343Z,-2.10
2019-01-24T02:19:18.712Z,-2.00
2019-01-24T02:21:53.179Z,-2.00
2019-01-24T02:24:27.589Z,-1.90
2019-01-24T02:27:01.199Z,-2.00
2019-01-24T02:29:34.830Z,-1.90
2019-01-24T02:32:08.452Z,-1.90
2019-01-24T02:34:42.099Z,-2.00
2019-01-24T02:37:15.709Z,-2.00
2019-01-24T02:39:49.606Z,-2.00
2019-01-24T02:42:23.228Z,-1.90
2019-01-24T02:44:56.811Z,-1.90
2019-01-24T02:47:30.433Z,-1.90
2019-01-24T02:50:06.140Z,-2.00
2019-01-24T02:52:39.720Z,-1.90
2019-01-24T02:55:13.373Z,-1.90
2019-01-24T02:57:47.026Z,-1.90
2019-01-24T03:00:20.567Z,-1.90
2019-01-24T03:02:54.142Z,-1.90
2019-01-24T03:05:28.510Z,-2.10
2019-01-24T03:08:02.084Z,-2.10
2019-01-24T03:10:35.726Z,-2.10
2019-01-24T03:13:09.283Z,-2.10
2019-01-24T03:15:42.846Z,-2.00
2019-01-24T03:18:16.531Z,-2.10
2019-01-24T03:20:50.037Z,-2.20
2019-01-24T03:23:23.652Z,-2.30
2019-01-24T03:25:58.144Z,-2.30
2019-01-24T03:28:31.720Z,-2.30
2019-01-24T03:31:06.108Z,-2.30
2019-01-24T03:33:39.842Z,-2.30
2019-01-24T03:36:13.382Z,-2.20
2019-01-24T03:38:46.954Z,-2.10
2019-01-24T03:41:20.561Z,-2.00
2019-01-24T03:43:54.164Z,-2.10
2019-01-24T03:46:28.508Z,-2.20
2019-01-24T03:49:02.285Z,-2.20
2019-01-24T03:51:36.851Z,-2.10
2019-01-24T03:54:10.475Z,-2.20
2019-01-24T03:56:44.062Z,-2.20
2019-01-24T03:59:17.836Z,-2.20
2019-01-24T04:01:51.528Z,-2.30
2019-01-24T04:04:25.168Z,-2.40
2019-01-24T04:06:58.759Z,-2.40
2019-01-24T04:09:32.640Z,-2.30
2019-01-24T04:12:08.409Z,-2.50
2019-01-24T04:14:40.777Z,-2.50
2019-01-24T04:17:14.380Z,-2.60
2019-01-24T04:19:47.967Z,-2.60
2019-01-24T04:22:21.575Z,-2.40
2019-01-24T04:24:55.302Z,-2.40
2019-01-24T04:27:28.962Z,-2.40
2019-01-24T04:30:02.626Z,-2.40
2019-01-24T04:32:37.009Z,-2.40
2019-01-24T04:35:11.306Z,-2.30
2019-01-24T04:37:44.908Z,-2.30
2019-01-24T04:40:19.268Z,-2.30
2019-01-24T04:42:52.927Z,-2.40
2019-01-24T04:45:26.553Z,-2.30
2019-01-24T04:48:00.325Z,-2.40
2019-01-24T04:50:33.954Z,-2.40
2019-01-24T04:53:07.519Z,-2.40
2019-01-24T04:55:41.278Z,-2.40
2019-01-24T04:58:14.873Z,-2.40
2019-01-24T05:00:48.448Z,-2.40
2019-01-24T05:03:22.056Z,-2.40
2019-01-24T05:05:55.649Z,-2.40
2019-01-24T05:08:29.445Z,-2.50
2019-01-24T05:11:03.200Z,-2.40
2019-01-24T05:13:36.919Z,-2.40
2019-01-24T05:16:10.616Z,-2.40
2019-01-24T05:18:44.199Z,-2.40
2019-01-24T05:21:17.797Z,-2.50
2019-01-24T05:23:51.572Z,-2.40
2019-01-24T05:26:25.904Z,-2.30
2019-01-24T05:28:59.632Z,-2.30
2019-01-24T05:31:33.308Z,-2.30
2019-01-24T05:34:06.821Z,-2.30
2019-01-24T05:36:40.502Z,-2.30
2019-01-24T05:39:14.887Z,-2.30
2019-01-24T05:41:48.509Z,-2.40
2019-01-24T05:44:22.285Z,-2.40
2019-01-24T05:46:55.828Z,-2.50
2019-01-24T05:49:29.419Z,-2.50
2019-01-24T05:52:03.017Z,-2.50
2019-01-24T05:54:36.775Z,-2.50
2019-01-24T05:57:10.568Z,-2.40
2019-01-24T05:59:44.176Z,-2.50
2019-01-24T06:02:17.793Z,-2.50
2019-01-24T06:04:51.546Z,-2.50
2019-01-24T06:07:25.926Z,-2.50
2019-01-24T06:09:58.807Z,-2.50
2019-01-24T06:12:33.285Z,-2.50
2019-01-24T06:15:06.975Z,-2.50
2019-01-24T06:17:40.507Z,-2.40
2019-01-24T06:20:14.055Z,-2.30
2019-01-24T06:22:55.989Z,-2.30
2019-01-24T06:25:29.708Z,-2.30
2019-01-24T06:28:03.299Z,-2.10
2019-01-24T06:30:36.999Z,-2.20
2019-01-24T06:33:11.343Z,-2.30
2019-01-24T06:35:48.672Z,-2.30
2019-01-24T06:38:18.621Z,-2.30
2019-01-24T06:40:52.340Z,-2.30
2019-01-24T06:43:26.235Z,-2.30
2019-01-24T06:46:00.053Z,-2.30
2019-01-24T06:48:33.698Z,-2.30
2019-01-24T06:51:07.306Z,-2.30
2019-01-24T06:53:41.050Z,-2.30
2019-01-24T06:56:14.771Z,-2.30
2019-01-24T06:58:48.426Z,-2.50
2019-01-24T07:01:22.066Z,-2.50
2019-01-24T07:03:55.917Z,-2.60
2019-01-24T07:06:29.703Z,-2.60
2019-01-24T07:09:03.263Z,-2.60
2019-01-24T07:11:36.891Z,-2.60
2019-01-24T07:14:10.679Z,-2.50
2019-01-24T07:16:44.180Z,-2.50
2019-01-24T07:19:18.627Z,-2.40
2019-01-24T07:21:52.435Z,-2.40
2019-01-24T07:24:26.002Z,-2.30
2019-01-24T07:26:59.774Z,-2.30
2019-01-24T07:29:33.467Z,-2.30
2019-01-24T07:32:08.008Z,-2.30
2019-01-24T07:34:41.612Z,-2.30
2019-01-24T07:37:15.297Z,-2.30
2019-01-24T07:39:48.940Z,-2.30
2019-01-24T07:42:22.544Z,-2.40
2019-01-24T07:44:56.245Z,-2.30
2019-01-24T07:47:29.852Z,-2.30
2019-01-24T07:50:04.799Z,-2.10
2019-01-24T07:52:37.014Z,-2.00
2019-01-24T07:55:10.884Z,-2.00
2019-01-24T07:57:44.144Z,-1.90
2019-01-24T08:00:19.707Z,-1.90
2019-01-24T08:02:52.152Z,-1.90
2019-01-24T08:05:25.887Z,-2.00
2019-01-24T08:07:59.552Z,-2.00
2019-01-24T08:10:33.283Z,-1.90
2019-01-24T08:13:06.851Z,-1.90
2019-01-24T08:15:40.695Z,-1.90
2019-01-24T08:18:14.272Z,-1.90
2019-01-24T08:20:47.896Z,-1.90
2019-01-24T08:23:21.729Z,-1.90
2019-01-24T08:25:55.268Z,-1.90
2019-01-24T08:28:29.195Z,-1.80
2019-01-24T08:31:03.026Z,-1.80
2019-01-24T08:33:36.643Z,-1.70
2019-01-24T08:36:15.558Z,-1.60
2019-01-24T08:38:44.037Z,-1.60
2019-01-24T08:41:17.595Z,-1.50
2019-01-24T08:43:51.209Z,-1.40
2019-01-24T08:46:25.549Z,-1.40
2019-01-24T08:48:59.304Z,-1.40
2019-01-24T08:51:33.868Z,-1.30
2019-01-24T08:54:07.619Z,-1.30
2019-01-24T08:56:41.161Z,-1.40
2019-01-24T08:59:14.778Z,-1.40
2019-01-24T09:01:49.093Z,-1.10
2019-01-24T09:04:23.543Z,-1.10
2019-01-24T09:06:58.048Z,-1.10
2019-01-24T09:09:31.710Z,-1.10
2019-01-24T09:12:05.282Z,-1.00
2019-01-24T09:14:38.844Z,-0.90
2019-01-24T09:17:12.442Z,-0.70
2019-01-24T09:19:46.035Z,-0.50
2019-01-24T09:22:19.613Z,-0.50
2019-01-24T09:24:54.096Z,-0.10
2019-01-24T09:27:28.584Z,0.10
2019-01-24T09:30:02.329Z,0.10
2019-01-24T09:32:36.047Z,0.30
2019-01-24T09:35:09.563Z,0.30
2019-01-24T09:37:43.278Z,0.50
2019-01-24T09:40:16.975Z,0.50
2019-01-24T09:42:50.600Z,0.70
2019-01-24T09:45:26.153Z,0.50
2019-01-24T09:47:59.972Z,0.40
2019-01-24T09:50:34.443Z,0.30
2019-01-24T09:53:08.103Z,0.20
2019-01-24T09:55:41.884Z,0.20
2019-01-24T09:58:16.166Z,0.20
2019-01-24T10:00:49.785Z,0.00
2019-01-24T10:03:24.272Z,-0.20
2019-01-24T10:05:58.058Z,-0.50
2019-01-24T10:08:31.759Z,-0.40
2019-01-24T10:11:06.156Z,-0.40
2019-01-24T10:13:41.913Z,-0.40
2019-01-24T10:16:15.815Z,-0.40
2019-01-24T10:18:49.558Z,-0.30
2019-01-24T10:21:23.129Z,-0.30
2019-01-24T10:23:57.988Z,-0.40
2019-01-24T10:26:32.478Z,-0.40
2019-01-24T10:29:06.055Z,-0.50
2019-01-24T10:31:39.812Z,-0.40
2019-01-24T10:34:13.554Z,-0.40
2019-01-24T10:36:47.224Z,-0.30
2019-01-24T10:39:20.948Z,-0.20
2019-01-24T10:41:54.684Z,0.40
2019-01-24T10:44:28.245Z,0.60
2019-01-24T10:47:01.816Z,0.60
2019-01-24T10:49:35.426Z,0.70
2019-01-24T10:52:09.153Z,1.80
2019-01-24T10:54:42.703Z,2.20
2019-01-24T10:57:16.558Z,2.00
2019-01-24T10:59:50.220Z,1.60
2019-01-24T11:02:23.935Z,1.90
2019-01-24T11:04:57.541Z,2.90
2019-01-24T11:07:31.257Z,2.50
2019-01-24T11:10:04.922Z,2.30
2019-01-24T11:12:38.559Z,1.90
2019-01-24T11:15:13.179Z,1.20
2019-01-24T11:17:46.802Z,0.90
2019-01-24T11:20:20.502Z,0.70
2019-01-24T11:22:54.167Z,0.40
2019-01-24T11:25:28.607Z,0.30
2019-01-24T11:28:02.253Z,0.30
2019-01-24T11:30:35.941Z,0.10
2019-01-24T11:33:09.632Z,-0.10
2019-01-24T11:35:43.418Z,-0.10
2019-01-24T11:38:17.106Z,-0.10
2019-01-24T11:40:52.259Z,0.00
2019-01-24T11:43:26.193Z,0.10
2019-01-24T11:45:59.964Z,0.10
2019-01-24T11:48:33.650Z,0.10
2019-01-24T11:51:07.339Z,0.10
2019-01-24T11:53:41.020Z,0.20
2019-01-24T11:56:15.593Z,0.10
2019-01-24T11:58:49.195Z,0.10
2019-01-24T12:01:22.850Z,0.20
2019-01-24T12:03:57.049Z,0.20
2019-01-24T12:06:30.701Z,0.10
2019-01-24T12:09:04.344Z,-0.20
2019-01-24T12:11:37.924Z,-0.40
2019-01-24T12:14:11.604Z,-0.40
2019-01-24T12:16:45.226Z,-0.30
2019-01-24T12:19:18.810Z,-0.40
2019-01-24T12:21:52.440Z,-0.30
2019-01-24T12:24:26.236Z,-0.40
2019-01-24T12:26:59.911Z,-0.40
2019-01-24T12:29:33.542Z,-0.30
2019-01-24T12:32:07.133Z,-0.40
2019-01-24T12:34:40.736Z,-0.50
2019-01-24T12:37:14.452Z,-0.50
2019-01-24T12:39:48.155Z,-0.50
2019-01-24T12:42:21.953Z,-0.40
2019-01-24T12:44:55.730Z,-0.50
2019-01-24T12:47:29.440Z,-0.40
2019-01-24T12:50:03.171Z,-0.50
2019-01-24T12:52:37.035Z,-0.40
2019-01-24T12:55:10.784Z,-0.40
2019-01-24T12:57:44.638Z,-0.40
2019-01-24T13:00:21.086Z,-0.40
2019-01-24T13:02:54.746Z,-0.40
2019-01-24T13:05:28.599Z,-0.40
2019-01-24T13:08:02.339Z,-0.30
2019-01-24T13:10:35.929Z,-0.30
2019-01-24T13:13:10.469Z,-0.30
2019-01-24T13:15:44.083Z,-0.30
2019-01-24T13:18:18.509Z,-0.40
2019-01-24T13:20:52.804Z,-0.40
2019-01-24T13:23:27.345Z,-0.40
2019-01-24T13:26:00.985Z,-0.40
2019-01-24T13:28:34.626Z,-0.40
2019-01-24T13:31:09.108Z,-0.70
2019-01-24T13:33:43.761Z,-0.60
2019-01-24T13:36:17.821Z,-0.60
2019-01-24T13:38:51.624Z,-0.50
2019-01-24T13:41:26.170Z,-0.40
2019-01-24T13:43:59.851Z,-0.50
2019-01-24T13:46:33.463Z,-0.50
2019-01-24T13:49:07.338Z,-0.50
2019-01-24T13:51:41.062Z,-0.60
2019-01-24T13:54:15.572Z,-0.50
2019-01-24T13:56:49.183Z,-0.50
2019-01-24T13:59:23.086Z,-0.50
2019-01-24T14:01:56.798Z,-0.60
2019-01-24T14:04:31.124Z,-0.80
2019-01-24T14:07:05.687Z,-0.80
2019-01-24T14:09:39.453Z,-0.80
2019-01-24T14:12:13.062Z,-0.80
2019-01-24T14:14:46.616Z,-0.80
2019-01-24T14:17:20.248Z,-0.70
2019-01-24T14:19:54.795Z,-0.70
2019-01-24T14:22:28.622Z,-0.70
2019-01-24T14:25:02.325Z,-0.60
2019-01-24T14:27:36.133Z,-0.50
2019-01-24T14:30:10.834Z,-0.50
2019-01-24T14:32:44.473Z,-0.50
2019-01-24T14:35:18.117Z,-0.70
2019-01-24T14:37:52.668Z,-0.80
2019-01-24T14:40:26.427Z,-0.80
2019-01-24T14:43:00.049Z,-0.80
2019-01-24T14:45:33.760Z,-0.90
2019-01-24T14:48:07.339Z,-0.90
2019-01-24T14:50:40.934Z,-0.80
2019-01-24T14:53:14.606Z,-0.90
2019-01-24T14:55:48.517Z,-0.80
2019-01-24T14:58:23.580Z,-0.70
2019-01-24T15:00:57.721Z,-0.70
2019-01-24T15:03:32.119Z,-0.80
2019-01-24T15:06:06.108Z,-0.90
2019-01-24T15:08:39.799Z,-0.90
2019-01-24T15:11:13.392Z,-0.90
2019-01-24T15:13:47.185Z,-0.90
2019-01-24T15:16:21.543Z,-1.00
2019-01-24T15:18:55.248Z,-1.10
2019-01-24T15:21:28.851Z,-1.00
2019-01-24T15:24:02.432Z,-1.10
2019-01-24T15:26:36.256Z,-1.10
2019-01-24T15:29:09.922Z,-1.10
2019-01-24T15:31:43.552Z,-1.20
2019-01-24T15:34:17.205Z,-1.20
2019-01-24T15:36:50.871Z,-1.10
2019-01-24T15:39:24.463Z,-1.20
2019-01-24T15:41:58.075Z,-1.20
2019-01-24T15:44:31.619Z,-1.10
2019-01-24T15:47:06.221Z,-1.10
2019-01-24T15:49:40.770Z,-1.00
2019-01-24T15:52:14.552Z,-1.10
2019-01-24T15:54:48.164Z,-1.00
2019-01-24T15:57:22.539Z,-1.00
2019-01-24T15:59:56.107Z,-1.00
2019-01-24T16:02:29.623Z,-1.00
2019-01-24T16:05:03.466Z,-1.10
2019-01-24T16:07:37.163Z,-1.30
2019-01-24T16:10:11.674Z,-1.30
2019-01-24T16:12:45.183Z,-1.30
2019-01-24T16:15:19.666Z,-1.20
2019-01-24T16:17:54.134Z,-1.10
2019-01-24T16:20:27.879Z,-1.20
2019-01-24T16:23:01.420Z,-1.10
2019-01-24T16:25:35.052Z,-1.10
2019-01-24T16:28:08.821Z,-1.00
2019-01-24T16:30:43.386Z,-1.10
2019-01-24T16:33:17.009Z,-1.10
2019-01-24T16:35:51.494Z,-1.30
2019-01-24T16:38:25.173Z,-1.30
2019-01-24T16:40:59.360Z,-1.30
2019-01-24T16:43:32.544Z,-1.30
2019-01-24T16:46:06.153Z,-1.20
2019-01-24T16:48:39.966Z,-1.10
2019-01-24T16:51:13.528Z,-1.10
2019-01-24T16:53:47.125Z,-1.10
2019-01-24T16:56:20.916Z,-1.10
2019-01-24T16:58:54.735Z,-1.10
2019-01-24T17:01:28.429Z,-1.00
2019-01-24T17:04:02.257Z,-1.00
2019-01-24T17:06:36.051Z,-1.00
2019-01-24T17:09:15.446Z,-1.10
2019-01-24T17:11:49.523Z,-1.10
2019-01-24T17:14:23.954Z,-1.10
2019-01-24T17:16:57.519Z,-1.20
2019-01-24T17:19:31.129Z,-1.10
2019-01-24T17:22:04.722Z,-1.10
2019-01-24T17:24:38.413Z,-1.00
2019-01-24T17:27:12.033Z,-1.00
2019-01-24T17:29:45.713Z,-1.10
2019-01-24T17:32:19.371Z,-1.10
2019-01-24T17:34:53.670Z,-1.10
2019-01-24T17:37:26.738Z,-1.10
2019-01-24T17:40:01.371Z,-1.10
2019-01-24T17:42:35.095Z,-1.10
2019-01-24T17:45:08.909Z,-1.10
2019-01-24T17:47:42.504Z,-1.00
2019-01-24T17:50:16.132Z,-1.00
2019-01-24T17:52:49.785Z,-1.00
2019-01-24T17:58:13.253Z,-1.10
2019-01-24T18:00:47.065Z,-1.10
2019-01-24T18:03:21.590Z,-1.00
2019-01-24T18:05:55.418Z,-1.00
2019-01-24T18:08:31.341Z,-1.00
2019-01-24T18:11:02.688Z,-1.00
2019-01-24T18:13:36.434Z,-1.00
2019-01-24T18:16:10.125Z,-1.10
2019-01-24T18:18:44.497Z,-1.30
2019-01-24T18:21:18.287Z,-1.30
2019-01-24T18:23:52.072Z,-1.30
2019-01-24T18:26:25.759Z,-1.30
2019-01-24T18:29:00.251Z,-1.20
2019-01-24T18:31:33.852Z,-1.20
2019-01-24T18:34:07.683Z,-1.10
2019-01-24T18:36:41.287Z,-1.10
2019-01-24T18:39:15.806Z,-1.20
2019-01-24T18:41:49.648Z,-1.20
2019-01-24T18:44:23.307Z,-1.10
2019-01-24T18:46:56.963Z,-1.30
2019-01-24T18:49:31.512Z,-1.20
2019-01-24T18:52:05.091Z,-1.20
2019-01-24T18:54:38.640Z,-1.30
2019-01-24T18:57:12.245Z,-1.40
2019-01-24T18:59:45.933Z,-1.30
2019-01-24T19:02:20.441Z,-1.30
2019-01-24T19:04:54.232Z,-1.30
2019-01-24T19:07:28.041Z,-1.30
2019-01-24T19:10:01.619Z,-1.30
2019-01-24T19:12:35.192Z,-1.30
2019-01-24T19:15:12.332Z,-1.20
2019-01-24T19:17:46.069Z,-1.20
2019-01-24T19:20:20.373Z,-1.20
2019-01-24T19:22:53.940Z,-1.40
2019-01-24T19:25:27.709Z,-1.40
2019-01-24T19:28:01.300Z,-1.40
2019-01-24T19:30:34.979Z,-1.40
2019-01-24T19:33:08.663Z,-1.30
2019-01-24T19:35:42.315Z,-1.20
2019-01-24T19:38:16.705Z,-1.20
2019-01-24T19:40:50.423Z,-1.20
2019-01-24T19:43:24.139Z,-1.10
2019-01-24T19:45:58.531Z,-1.20
2019-01-24T19:48:32.098Z,-1.30
2019-01-24T19:51:05.779Z,-1.30
2019-01-24T19:53:40.387Z,-1.40
2019-01-24T19:56:13.967Z,-1.40
2019-01-24T19:58:47.677Z,-1.40
2019-01-24T20:01:22.094Z,-1.30
2019-01-24T20:03:55.797Z,-1.30
2019-01-24T20:06:29.368Z,-1.30
2019-01-24T20:09:03.013Z,-1.30
2019-01-24T20:11:36.728Z,-1.30
2019-01-24T20:14:11.125Z,-1.30
2019-01-24T20:16:44.778Z,-1.30
2019-01-24T20:19:18.347Z,-1.20
2019-01-24T20:21:52.039Z,-1.20
2019-01-24T20:24:25.648Z,-1.30
2019-01-24T20:26:59.423Z,-1.30
2019-01-24T20:29:33.049Z,-1.30
2019-01-24T20:32:06.880Z,-1.20
2019-01-24T20:34:40.637Z,-1.20
2019-01-24T20:37:14.479Z,-1.20
2019-01-24T20:39:48.035Z,-1.20
2019-01-24T20:42:21.568Z,-1.10
2019-01-24T20:44:55.075Z,-1.10
2019-01-24T20:47:28.720Z,-1.10
2019-01-24T20:50:02.365Z,-1.10
2019-01-24T20:52:36.063Z,-1.10
2019-01-24T20:55:09.664Z,-1.20
2019-01-24T20:57:43.379Z,-1.30
2019-01-24T21:00:18.711Z,-1.30
2019-01-24T21:02:52.324Z,-1.30
2019-01-24T21:05:25.987Z,-1.30
2019-01-24T21:07:59.558Z,-1.20
2019-01-24T21:10:33.350Z,-1.20
2019-01-24T21:13:07.157Z,-1.20
2019-01-24T21:15:40.946Z,-1.20
2019-01-24T21:18:15.459Z,-1.20
2019-01-24T21:20:49.230Z,-1.20
2019-01-24T21:23:23.004Z,-1.20
2019-01-24T21:25:56.571Z,-1.10
2019-01-24T21:28:30.991Z,-1.20
2019-01-24T21:31:05.494Z,-1.30
2019-01-24T21:33:39.147Z,-1.30
2019-01-24T21:36:12.953Z,-1.30
2019-01-24T21:38:46.770Z,-1.20
2019-01-24T21:41:20.598Z,-1.20
2019-01-24T21:43:54.327Z,-1.30
2019-01-24T21:46:27.903Z,-1.20
2019-01-24T21:49:01.546Z,-1.30
2019-01-24T21:51:35.412Z,-1.30
2019-01-24T21:54:09.024Z,-1.20
2019-01-24T21:56:42.615Z,-1.20
2019-01-24T21:59:16.231Z,-1.20
2019-01-24T22:01:50.879Z,-1.30
2019-01-24T22:04:24.564Z,-1.30
2019-01-24T22:06:58.083Z,-1.30
2019-01-24T22:09:31.780Z,-1.20
2019-01-24T22:12:05.332Z,-1.10
2019-01-24T22:14:38.963Z,-1.10
2019-01-24T22:17:13.384Z,-1.30
2019-01-24T22:19:47.033Z,-1.30
2019-01-24T22:22:21.507Z,-1.20
2019-01-24T22:24:55.135Z,-1.20
2019-01-24T22:27:28.716Z,-1.20
2019-01-24T22:30:02.483Z,-1.20
2019-01-24T22:32:36.156Z,-1.20
2019-01-24T22:35:10.754Z,-1.20
2019-01-24T22:37:44.361Z,-1.10
2019-01-24T22:40:18.845Z,-1.30
2019-01-24T22:42:52.479Z,-1.40
2019-01-24T22:45:26.056Z,-1.40
2019-01-24T22:47:59.591Z,-1.50
2019-01-24T22:50:33.316Z,-1.60
2019-01-24T22:53:07.073Z,-1.50
2019-01-24T22:55:40.730Z,-1.50
2019-01-24T22:58:14.345Z,-1.60
2019-01-24T23:00:51.429Z,-1.60
2019-01-24T23:03:26.750Z,-1.80
2019-01-24T23:06:01.222Z,-1.90
2019-01-24T23:08:35.648Z,-1.80
2019-01-24T23:11:09.277Z,-1.90
2019-01-24T23:13:43.012Z,-1.80
2019-01-24T23:16:16.554Z,-1.80
2019-01-24T23:18:50.163Z,-1.70
2019-01-24T23:21:23.696Z,-1.70
2019-01-24T23:23:58.058Z,-1.50
2019-01-24T23:26:31.696Z,-1.60
2019-01-24T23:29:05.350Z,-1.60
2019-01-24T23:31:38.968Z,-1.70
2019-01-24T23:34:12.517Z,-1.70
2019-01-24T23:36:47.064Z,-1.70
2019-01-24T23:39:20.676Z,-1.80
2019-01-24T23:41:55.170Z,-1.90
2019-01-24T23:44:28.907Z,-1.90
2019-01-24T23:47:02.577Z,-1.80
2019-01-24T23:49:37.860Z,-2.00
2019-01-24T23:52:15.221Z,-2.00
2019-01-24T23:54:49.031Z,-2.00
2019-01-24T23:57:23.958Z,-2.00
2019-01-24T23:59:56.443Z,-2.10
